Time;durP1;ratioP1;P1;durP2;ratioP2;P2;SDS_P1;SDS_P2;PMS_P1;PMS_P2;Temp;Humidity;BMP_temperature;BMP_pressure;BME280_temperature;BME280_humidity;BME280_pressure;Samples;Min_cycle;Max_cycle;Signal;HPM_P1;HPM_P2
2021/10/04 00:00:58;;;;;;;2.50;2.23;;;;;20.90;100172.00;;;;2094978;28;20299;-55
2021/10/04 00:01:58;;;;;;;2.90;2.33;;;;;20.90;100179.00;;;;2088470;28;20213;-56
2021/10/04 00:02:59;;;;;;;2.23;2.03;;;;;20.90;100175.00;;;;2087260;28;20324;-54
2021/10/04 00:03:59;;;;;;;2.20;2.00;;;;;20.90;100165.00;;;;2094823;28;20269;-54
2021/10/04 00:05:00;;;;;;;2.03;1.83;;;;;20.90;100165.00;;;;2091712;28;20253;-55
2021/10/04 00:06:00;;;;;;;2.27;2.07;;;;;20.90;100170.00;;;;2102901;28;20338;-55
2021/10/04 00:07:02;;;;;;;2.40;2.20;;;;;20.90;100175.00;;;;2087478;28;20216;-55
2021/10/04 00:08:02;;;;;;;2.20;2.00;;;;;20.90;100176.00;;;;2088368;28;20247;-56
2021/10/04 00:09:02;;;;;;;2.50;2.27;;;;;20.90;100176.00;;;;2088422;28;21863;-56
2021/10/04 00:10:05;;;;;;;3.70;2.57;;;;;20.90;100182.00;;;;2087046;28;20266;-55
2021/10/04 00:11:05;;;;;;;2.47;2.28;;;;;20.90;100181.00;;;;2078221;28;20241;-54
2021/10/04 00:12:07;;;;;;;1.93;1.73;;;;;20.90;100181.00;;;;2080671;28;20661;-56
2021/10/04 00:13:07;;;;;;;2.30;2.10;;;;;20.90;100183.00;;;;2095305;28;20233;-56
2021/10/04 00:14:07;;;;;;;2.40;2.20;;;;;20.90;100181.00;;;;2095573;28;20673;-56
2021/10/04 00:15:09;;;;;;;2.20;2.00;;;;;20.90;100188.00;;;;2095684;28;20586;-56
2021/10/04 00:16:10;;;;;;;2.15;1.92;;;;;20.90;100195.00;;;;2095598;28;20695;-55
2021/10/04 00:17:10;;;;;;;2.33;2.00;;;;;20.90;100201.00;;;;2095105;28;20216;-55
2021/10/04 00:18:11;;;;;;;2.30;2.10;;;;;20.90;100203.00;;;;2094959;28;20223;-54
2021/10/04 00:19:11;;;;;;;2.13;1.93;;;;;20.90;100199.00;;;;2095076;28;20216;-55
2021/10/04 00:20:12;;;;;;;1.80;1.70;;;;;20.90;100210.00;;;;2095613;28;20701;-56
2021/10/04 00:21:13;;;;;;;2.30;2.08;;;;;20.90;100211.00;;;;2095053;28;20227;-55
2021/10/04 00:22:13;;;;;;;2.40;2.20;;;;;20.90;100215.00;;;;2095562;28;20208;-56
2021/10/04 00:23:14;;;;;;;2.33;2.13;;;;;20.90;100216.00;;;;2095699;28;20676;-56
2021/10/04 00:24:14;;;;;;;2.70;2.40;;;;;20.90;100224.00;;;;2095609;28;20577;-55
2021/10/04 00:25:14;;;;;;;2.00;1.80;;;;;20.90;100214.00;;;;2095612;28;20231;-55
2021/10/04 00:26:15;;;;;;;2.30;2.10;;;;;20.90;100212.00;;;;2094481;28;20293;-55
2021/10/04 00:27:15;;;;;;;2.30;1.80;;;;;20.90;100220.00;;;;2095861;28;20303;-55
2021/10/04 00:28:16;;;;;;;2.03;1.93;;;;;20.90;100212.00;;;;2095721;28;20220;-55
2021/10/04 00:29:19;;;;;;;2.37;2.17;;;;;20.90;100220.00;;;;2094120;28;20208;-58
2021/10/04 00:30:19;;;;;;;2.03;1.60;;;;;20.90;100225.00;;;;2094201;28;20220;-55
2021/10/04 00:31:19;;;;;;;2.33;2.10;;;;;20.90;100225.00;;;;2095683;28;20208;-55
2021/10/04 00:32:20;;;;;;;1.83;1.70;;;;;20.90;100237.00;;;;2094733;28;20219;-55
2021/10/04 00:33:20;;;;;;;2.20;2.00;;;;;20.90;100227.00;;;;2095060;28;20242;-55
2021/10/04 00:34:20;;;;;;;2.10;1.90;;;;;20.90;100228.00;;;;2095122;28;20572;-55
2021/10/04 00:35:22;;;;;;;2.00;1.80;;;;;20.90;100234.00;;;;2095566;28;20606;-55
2021/10/04 00:36:22;;;;;;;1.88;1.73;;;;;20.90;100230.00;;;;2095054;28;20217;-55
2021/10/04 00:37:23;;;;;;;1.67;1.57;;;;;20.90;100225.00;;;;2089963;28;20215;-54
2021/10/04 00:38:23;;;;;;;2.47;1.87;;;;;20.90;100231.00;;;;2089271;28;20576;-55
2021/10/04 00:39:24;;;;;;;2.10;1.80;;;;;20.90;100233.00;;;;2091892;28;20552;-55
2021/10/04 00:40:27;;;;;;;2.87;2.10;;;;;20.90;100237.00;;;;2095410;28;20220;-56
2021/10/04 00:41:28;;;;;;;2.35;2.08;;;;;20.90;100239.00;;;;2095587;28;20295;-56
2021/10/04 00:42:28;;;;;;;1.80;1.70;;;;;20.90;100230.00;;;;2095654;28;20204;-55
2021/10/04 00:43:28;;;;;;;2.40;1.90;;;;;20.90;100246.00;;;;2095414;28;20451;-55
2021/10/04 00:44:29;;;;;;;1.63;1.53;;;;;20.90;100244.00;;;;2095474;28;20270;-56
2021/10/04 00:45:29;;;;;;;2.30;2.00;;;;;20.90;100247.00;;;;2090991;28;20855;-55
2021/10/04 00:46:30;;;;;;;1.50;1.40;;;;;20.90;100255.00;;;;2087087;28;20568;-55
2021/10/04 00:47:30;;;;;;;1.70;1.60;;;;;20.90;100249.00;;;;2087235;28;20406;-56
2021/10/04 00:48:31;;;;;;;2.73;1.80;;;;;20.90;100258.00;;;;2088289;28;20325;-55
2021/10/04 00:49:31;;;;;;;1.80;1.70;;;;;20.90;100245.00;;;;2094472;28;20208;-55
2021/10/04 00:50:32;;;;;;;1.80;1.63;;;;;20.90;100256.00;;;;2095515;28;20224;-56
2021/10/04 00:51:32;;;;;;;1.80;1.67;;;;;20.90;100253.00;;;;2094070;28;20239;-56
2021/10/04 00:52:32;;;;;;;2.43;2.23;;;;;20.90;100253.00;;;;2094840;28;20231;-54
2021/10/04 00:53:33;;;;;;;1.73;1.63;;;;;20.90;100247.00;;;;2094808;28;20203;-55
2021/10/04 00:54:33;;;;;;;2.10;1.70;;;;;20.90;100256.00;;;;2094763;28;20200;-55
2021/10/04 00:55:33;;;;;;;1.83;1.73;;;;;20.90;100245.00;;;;2095009;28;20226;-55
2021/10/04 00:56:34;;;;;;;1.60;1.50;;;;;20.90;100241.00;;;;2094988;28;20212;-55
2021/10/04 00:57:35;;;;;;;1.80;1.60;;;;;20.90;100236.00;;;;2094840;28;20242;-56
2021/10/04 00:58:36;;;;;;;1.85;1.73;;;;;20.90;100244.00;;;;2093937;28;20211;-55
2021/10/04 00:59:36;;;;;;;1.83;1.43;;;;;20.90;100239.00;;;;2094111;28;20212;-56
2021/10/04 01:00:37;;;;;;;1.60;1.50;;;;;20.90;100226.00;;;;2094299;28;20291;-56
2021/10/04 01:01:37;;;;;;;1.90;1.60;;;;;20.90;100240.00;;;;2095121;28;20265;-55
2021/10/04 01:02:38;;;;;;;2.07;1.87;;;;;20.90;100236.00;;;;2094590;28;20204;-55
2021/10/04 01:03:38;;;;;;;1.87;1.67;;;;;20.90;100244.00;;;;2094835;28;20705;-56
2021/10/04 01:04:39;;;;;;;1.60;1.50;;;;;20.90;100247.00;;;;2094867;28;20559;-54
2021/10/04 01:05:39;;;;;;;1.57;1.47;;;;;20.90;100246.00;;;;2095363;28;20705;-57
2021/10/04 01:06:39;;;;;;;1.60;1.50;;;;;20.90;100245.00;;;;2091433;28;20208;-55
2021/10/04 01:07:40;;;;;;;1.43;1.33;;;;;20.90;100242.00;;;;2089265;28;20240;-55
2021/10/04 01:08:40;;;;;;;2.10;1.60;;;;;20.90;100245.00;;;;2088722;28;20319;-55
2021/10/04 01:09:41;;;;;;;1.67;1.53;;;;;20.90;100237.00;;;;2087049;28;20249;-56
2021/10/04 01:10:41;;;;;;;1.53;1.43;;;;;20.90;100228.00;;;;2087248;28;20582;-56
2021/10/04 01:11:42;;;;;;;1.73;1.53;;;;;20.90;100248.00;;;;2086961;28;20299;-55
2021/10/04 01:12:46;;;;;;;1.60;1.50;;;;;20.90;100226.00;;;;2087852;28;20220;-54
2021/10/04 01:13:46;;;;;;;1.50;1.40;;;;;20.90;100241.00;;;;2088952;28;20646;-55
2021/10/04 01:14:46;;;;;;;1.67;1.50;;;;;20.90;100247.00;;;;2088871;28;20227;-55
2021/10/04 01:15:47;;;;;;;1.97;1.77;;;;;20.90;100238.00;;;;2087693;28;20678;-55
2021/10/04 01:16:47;;;;;;;1.80;1.63;;;;;20.90;100233.00;;;;2088894;28;20591;-56
2021/10/04 01:17:48;;;;;;;1.60;1.50;;;;;20.90;100234.00;;;;2088228;28;20220;-55
2021/10/04 01:18:48;;;;;;;2.00;1.63;;;;;20.80;100232.00;;;;2087669;28;20751;-56
2021/10/04 01:19:49;;;;;;;2.37;1.80;;;;;20.90;100231.00;;;;2088214;28;20243;-55
2021/10/04 01:20:49;;;;;;;1.67;1.47;;;;;20.90;100233.00;;;;2097170;28;20311;-55
2021/10/04 01:21:49;;;;;;;1.63;1.30;;;;;20.90;100239.00;;;;2094918;28;20697;-55
2021/10/04 01:22:50;;;;;;;1.37;1.27;;;;;20.90;100239.00;;;;2096801;28;20645;-55
2021/10/04 01:23:50;;;;;;;1.70;1.60;;;;;20.90;100247.00;;;;2094183;28;20216;-55
2021/10/04 01:24:51;;;;;;;1.70;1.60;;;;;20.90;100255.00;;;;2088423;28;20922;-55
2021/10/04 01:25:51;;;;;;;1.63;1.53;;;;;20.90;100242.00;;;;2091435;28;20330;-55
2021/10/04 01:26:52;;;;;;;1.73;1.27;;;;;20.90;100243.00;;;;2096533;28;20238;-55
2021/10/04 01:27:53;;;;;;;1.50;1.40;;;;;20.90;100241.00;;;;2096781;28;20258;-55
2021/10/04 01:28:53;;;;;;;1.60;1.50;;;;;20.90;100237.00;;;;2095094;28;20558;-54
2021/10/04 01:29:53;;;;;;;1.63;1.40;;;;;20.90;100243.00;;;;2088557;28;20236;-55
2021/10/04 01:30:54;;;;;;;2.10;1.73;;;;;20.90;100239.00;;;;2088343;28;20221;-54
2021/10/04 01:31:54;;;;;;;1.30;1.20;;;;;20.90;100228.00;;;;2088302;28;20212;-57
2021/10/04 01:32:55;;;;;;;1.40;1.27;;;;;20.90;100238.00;;;;2088595;28;20228;-57
2021/10/04 01:33:56;;;;;;;1.70;1.40;;;;;20.90;100256.00;;;;2088623;28;20217;-57
2021/10/04 01:34:57;;;;;;;1.50;1.40;;;;;20.90;100254.00;;;;2092575;28;20727;-56
2021/10/04 01:35:57;;;;;;;1.40;1.10;;;;;20.90;100243.00;;;;2088715;28;20295;-54
2021/10/04 01:36:57;;;;;;;1.17;1.03;;;;;20.90;100249.00;;;;2089711;28;20458;-54
2021/10/04 01:37:58;;;;;;;1.90;1.60;;;;;20.90;100261.00;;;;2089348;28;20750;-55
2021/10/04 01:38:59;;;;;;;1.50;1.33;;;;;20.90;100257.00;;;;2089703;28;20755;-55
2021/10/04 01:39:59;;;;;;;1.60;1.50;;;;;20.90;100264.00;;;;2088661;28;20223;-56
2021/10/04 01:41:00;;;;;;;1.37;1.13;;;;;20.90;100255.00;;;;2088583;28;20217;-55
2021/10/04 01:42:00;;;;;;;1.40;1.17;;;;;20.90;100263.00;;;;2095602;28;20458;-55
2021/10/04 01:43:01;;;;;;;1.40;1.30;;;;;20.90;100252.00;;;;2096811;28;20220;-55
2021/10/04 01:44:01;;;;;;;1.40;1.30;;;;;20.90;100257.00;;;;2096387;28;20204;-54
2021/10/04 01:45:03;;;;;;;1.47;1.37;;;;;20.90;100250.00;;;;2096937;28;20212;-55
2021/10/04 01:46:04;;;;;;;1.45;1.20;;;;;20.90;100253.00;;;;2096704;28;20216;-55
2021/10/04 01:47:04;;;;;;;1.20;1.10;;;;;20.90;100242.00;;;;2097065;28;20208;-55
2021/10/04 01:48:04;;;;;;;1.50;1.30;;;;;20.90;100238.00;;;;2095684;28;20226;-56
2021/10/04 01:49:05;;;;;;;1.53;1.43;;;;;20.90;100247.00;;;;2095835;28;20235;-56
2021/10/04 01:50:06;;;;;;;1.70;1.60;;;;;20.90;100238.00;;;;2092197;28;20270;-56
2021/10/04 01:51:07;;;;;;;1.85;1.50;;;;;20.90;100236.00;;;;2087830;28;20254;-56
2021/10/04 01:52:07;;;;;;;1.40;1.30;;;;;20.90;100250.00;;;;2088568;28;20693;-55
2021/10/04 01:53:08;;;;;;;1.70;1.27;;;;;20.90;100240.00;;;;2088076;28;20554;-55
2021/10/04 01:54:08;;;;;;;1.60;1.40;;;;;20.90;100235.00;;;;2088483;28;20292;-54
2021/10/04 01:55:09;;;;;;;1.30;1.20;;;;;20.80;100239.00;;;;2088540;28;20284;-54
2021/10/04 01:56:09;;;;;;;1.77;1.50;;;;;20.90;100242.00;;;;2088654;28;20212;-55
2021/10/04 01:57:10;;;;;;;1.13;1.03;;;;;20.80;100250.00;;;;2087551;28;20251;-56
2021/10/04 01:58:10;;;;;;;1.47;1.20;;;;;20.90;100255.00;;;;2086985;28;20228;-56
2021/10/04 01:59:11;;;;;;;1.20;1.10;;;;;20.80;100245.00;;;;2087580;28;20716;-57
2021/10/04 02:00:14;;;;;;;1.17;1.07;;;;;20.90;100246.00;;;;2087499;28;20682;-55
2021/10/04 02:01:15;;;;;;;1.48;1.38;;;;;20.80;100255.00;;;;2087596;28;20220;-55
2021/10/04 02:02:15;;;;;;;1.30;1.20;;;;;20.80;100254.00;;;;2087804;28;20220;-56
2021/10/04 02:03:16;;;;;;;1.20;1.10;;;;;20.80;100250.00;;;;2087889;28;20212;-55
2021/10/04 02:04:16;;;;;;;1.40;1.30;;;;;20.90;100247.00;;;;2093505;28;20235;-54
2021/10/04 02:05:17;;;;;;;1.50;1.40;;;;;20.90;100239.00;;;;2095542;28;20293;-55
2021/10/04 02:06:17;;;;;;;1.00;0.90;;;;;20.90;100244.00;;;;2094396;28;20269;-55
2021/10/04 02:07:18;;;;;;;1.50;1.30;;;;;20.90;100243.00;;;;2089550;28;20217;-55
2021/10/04 02:08:18;;;;;;;1.50;1.23;;;;;20.90;100241.00;;;;2089448;28;21003;-54
2021/10/04 02:09:19;;;;;;;1.40;1.30;;;;;20.80;100244.00;;;;2087461;28;20248;-55
2021/10/04 02:10:22;;;;;;;1.43;1.33;;;;;20.80;100250.00;;;;2087873;28;20216;-55
2021/10/04 02:11:22;;;;;;;1.65;1.55;;;;;20.80;100245.00;;;;2086900;28;20235;-54
2021/10/04 02:12:23;;;;;;;1.33;1.13;;;;;20.80;100249.00;;;;2090167;28;20738;-55
2021/10/04 02:13:24;;;;;;;1.33;1.23;;;;;20.80;100250.00;;;;2096172;28;20573;-55
2021/10/04 02:14:24;;;;;;;1.23;1.13;;;;;20.80;100251.00;;;;2096141;28;20216;-55
2021/10/04 02:15:25;;;;;;;1.50;1.13;;;;;20.90;100243.00;;;;2094778;28;20254;-55
2021/10/04 02:16:25;;;;;;;1.27;1.17;;;;;20.90;100253.00;;;;2096075;28;20277;-55
2021/10/04 02:17:26;;;;;;;1.43;1.33;;;;;20.80;100247.00;;;;2096326;28;20720;-55
2021/10/04 02:18:26;;;;;;;1.00;0.90;;;;;20.90;100242.00;;;;2095170;28;20215;-55
2021/10/04 02:19:27;;;;;;;1.10;1.00;;;;;20.80;100247.00;;;;2095007;28;20801;-55
2021/10/04 02:20:28;;;;;;;1.30;1.20;;;;;20.90;100243.00;;;;2096090;28;20833;-54
2021/10/04 02:21:29;;;;;;;1.63;1.10;;;;;20.70;100246.00;;;;2096057;28;20704;-54
2021/10/04 02:22:29;;;;;;;1.20;1.00;;;;;20.80;100247.00;;;;2095977;28;20207;-55
2021/10/04 02:23:29;;;;;;;1.30;1.20;;;;;20.80;100260.00;;;;2092498;28;20212;-54
2021/10/04 02:24:30;;;;;;;1.33;1.23;;;;;20.80;100248.00;;;;2085728;28;20213;-56
2021/10/04 02:25:31;;;;;;;1.27;1.17;;;;;20.80;100245.00;;;;2087601;28;20231;-55
2021/10/04 02:26:32;;;;;;;1.33;1.13;;;;;20.80;100248.00;;;;2086612;28;20217;-57
2021/10/04 02:27:32;;;;;;;1.40;0.80;;;;;20.80;100250.00;;;;2087542;28;20209;-56
2021/10/04 02:28:32;;;;;;;0.90;0.80;;;;;20.90;100251.00;;;;2090002;28;20209;-56
2021/10/04 02:29:33;;;;;;;1.33;1.00;;;;;20.80;100248.00;;;;2095296;28;20212;-55
2021/10/04 02:30:33;;;;;;;1.37;1.10;;;;;20.80;100249.00;;;;2093654;28;20227;-55
2021/10/04 02:31:33;;;;;;;1.20;1.10;;;;;20.80;100245.00;;;;2095467;28;20232;-55
2021/10/04 02:32:34;;;;;;;1.30;1.20;;;;;20.80;100247.00;;;;2095758;28;20209;-56
2021/10/04 02:33:34;;;;;;;1.30;1.20;;;;;20.90;100246.00;;;;2096018;28;20949;-55
2021/10/04 02:34:35;;;;;;;1.20;1.10;;;;;20.90;100249.00;;;;2095808;28;20696;-55
2021/10/04 02:35:36;;;;;;;1.60;1.20;;;;;20.80;100253.00;;;;2096093;28;20216;-56
2021/10/04 02:36:36;;;;;;;1.00;0.90;;;;;20.80;100247.00;;;;2092203;28;20223;-54
2021/10/04 02:37:37;;;;;;;1.13;1.03;;;;;20.80;100252.00;;;;2088710;28;20235;-54
2021/10/04 02:38:37;;;;;;;1.23;1.00;;;;;20.80;100242.00;;;;2088643;28;20335;-55
2021/10/04 02:39:38;;;;;;;1.37;1.27;;;;;20.80;100245.00;;;;2087545;28;20224;-56
2021/10/04 02:40:38;;;;;;;1.43;1.00;;;;;20.90;100259.00;;;;2087662;28;20225;-55
2021/10/04 02:41:39;;;;;;;1.00;0.90;;;;;20.80;100243.00;;;;2091900;28;20323;-55
2021/10/04 02:42:39;;;;;;;1.60;1.33;;;;;20.90;100251.00;;;;2094768;28;20285;-56
2021/10/04 02:43:40;;;;;;;1.33;0.93;;;;;20.80;100248.00;;;;2096201;28;20298;-55
2021/10/04 02:44:40;;;;;;;1.20;0.90;;;;;20.80;100239.00;;;;2096184;28;20998;-56
2021/10/04 02:45:41;;;;;;;1.10;1.00;;;;;20.90;100241.00;;;;2095715;28;20228;-56
2021/10/04 02:46:41;;;;;;;1.43;1.23;;;;;20.80;100242.00;;;;2095523;28;20220;-55
2021/10/04 02:47:42;;;;;;;1.60;1.40;;;;;20.90;100245.00;;;;2095748;28;20213;-55
2021/10/04 02:48:43;;;;;;;1.13;0.77;;;;;20.80;100246.00;;;;2095117;28;20295;-56
2021/10/04 02:49:43;;;;;;;1.17;1.00;;;;;20.80;100244.00;;;;2095648;28;20208;-54
2021/10/04 02:50:44;;;;;;;1.03;0.93;;;;;20.90;100238.00;;;;2095111;28;20223;-54
2021/10/04 02:51:45;;;;;;;1.70;1.20;;;;;20.80;100244.00;;;;2095822;28;20219;-55
2021/10/04 02:52:45;;;;;;;1.20;1.07;;;;;20.90;100241.00;;;;2095206;28;20212;-55
2021/10/04 02:53:45;;;;;;;1.20;0.90;;;;;20.80;100246.00;;;;2095064;28;20216;-56
2021/10/04 02:54:46;;;;;;;1.50;1.03;;;;;20.90;100247.00;;;;2095591;27;20224;-54
2021/10/04 02:55:46;;;;;;;1.43;1.20;;;;;20.80;100259.00;;;;2094442;28;20923;-54
2021/10/04 02:56:46;;;;;;;1.33;0.90;;;;;20.80;100251.00;;;;2096228;28;20239;-54
2021/10/04 02:57:47;;;;;;;1.30;1.10;;;;;20.80;100249.00;;;;2095894;28;20211;-55
2021/10/04 02:58:47;;;;;;;1.10;1.00;;;;;20.80;100250.00;;;;2095985;28;20651;-55
2021/10/04 02:59:48;;;;;;;1.20;1.03;;;;;20.80;100246.00;;;;2096126;28;20319;-55
2021/10/04 03:00:48;;;;;;;1.00;0.90;;;;;20.80;100249.00;;;;2096120;28;20251;-55
2021/10/04 03:01:48;;;;;;;1.00;0.90;;;;;20.80;100251.00;;;;2096334;28;20269;-55
2021/10/04 03:02:49;;;;;;;1.13;1.00;;;;;20.80;100256.00;;;;2095645;28;20270;-54
2021/10/04 03:03:49;;;;;;;1.20;1.00;;;;;20.80;100250.00;;;;2096200;28;20319;-55
2021/10/04 03:04:49;;;;;;;1.30;1.07;;;;;20.90;100256.00;;;;2093210;28;20701;-56
2021/10/04 03:05:50;;;;;;;1.30;1.10;;;;;20.90;100259.00;;;;2087629;28;20220;-55
2021/10/04 03:06:50;;;;;;;1.20;1.00;;;;;20.80;100255.00;;;;2089209;28;20213;-55
2021/10/04 03:07:51;;;;;;;1.03;0.90;;;;;20.80;100260.00;;;;2088743;28;20215;-55
2021/10/04 03:08:51;;;;;;;1.13;0.90;;;;;20.80;100263.00;;;;2089863;28;20267;-55
2021/10/04 03:09:52;;;;;;;1.30;1.03;;;;;20.80;100251.00;;;;2095288;28;20220;-55
2021/10/04 03:10:52;;;;;;;1.30;0.87;;;;;20.80;100261.00;;;;2095644;28;20213;-54
2021/10/04 03:11:52;;;;;;;1.13;0.93;;;;;20.80;100275.00;;;;2095664;28;20299;-55
2021/10/04 03:12:53;;;;;;;1.60;1.10;;;;;20.90;100270.00;;;;2095754;28;20231;-54
2021/10/04 03:13:53;;;;;;;1.53;1.00;;;;;20.90;100271.00;;;;2095468;28;20273;-55
2021/10/04 03:14:53;;;;;;;1.10;0.97;;;;;20.80;100276.00;;;;2096338;28;20220;-56
2021/10/04 03:15:54;;;;;;;1.13;0.87;;;;;20.80;100274.00;;;;2096142;28;20212;-55
2021/10/04 03:16:54;;;;;;;1.10;1.00;;;;;20.80;100273.00;;;;2096025;28;20204;-55
2021/10/04 03:17:55;;;;;;;1.40;1.00;;;;;20.80;100269.00;;;;2096159;28;20262;-55
2021/10/04 03:18:55;;;;;;;1.20;0.83;;;;;20.80;100278.00;;;;2095658;28;20227;-54
2021/10/04 03:19:55;;;;;;;1.20;0.90;;;;;20.80;100278.00;;;;2095548;28;20215;-56
2021/10/04 03:20:56;;;;;;;1.10;0.80;;;;;20.80;100283.00;;;;2095235;28;20945;-55
2021/10/04 03:21:56;;;;;;;1.40;1.00;;;;;20.80;100282.00;;;;2095713;28;20227;-56
2021/10/04 03:22:57;;;;;;;1.13;0.83;;;;;20.80;100291.00;;;;2095289;28;20303;-54
2021/10/04 03:23:57;;;;;;;0.93;0.83;;;;;20.80;100295.00;;;;2096038;28;20265;-55
2021/10/04 03:24:57;;;;;;;1.70;1.30;;;;;20.80;100289.00;;;;2090532;28;20748;-55
2021/10/04 03:25:58;;;;;;;1.10;1.00;;;;;20.80;100291.00;;;;2087820;28;20589;-54
2021/10/04 03:26:58;;;;;;;1.27;0.83;;;;;20.80;100284.00;;;;2087938;28;20209;-55
2021/10/04 03:27:59;;;;;;;1.10;0.80;;;;;20.80;100287.00;;;;2087591;28;20688;-55
2021/10/04 03:28:59;;;;;;;0.80;0.70;;;;;20.80;100288.00;;;;2087329;28;20306;-55
2021/10/04 03:30:00;;;;;;;1.10;0.80;;;;;20.80;100294.00;;;;2087780;28;20209;-55
2021/10/04 03:31:00;;;;;;;1.27;1.07;;;;;20.80;100292.00;;;;2087487;28;20221;-56
2021/10/04 03:32:01;;;;;;;1.07;0.97;;;;;20.80;100300.00;;;;2087357;28;20282;-55
2021/10/04 03:33:02;;;;;;;1.07;0.80;;;;;20.80;100303.00;;;;2087659;28;20217;-55
2021/10/04 03:34:02;;;;;;;1.00;0.70;;;;;20.80;100311.00;;;;2087483;28;20901;-56
2021/10/04 03:35:04;;;;;;;1.10;1.00;;;;;20.80;100320.00;;;;2087388;28;20243;-56
2021/10/04 03:36:04;;;;;;;0.90;0.77;;;;;20.80;100312.00;;;;2086968;28;20236;-56
2021/10/04 03:37:05;;;;;;;1.57;0.97;;;;;20.80;100320.00;;;;2089173;28;20220;-55
2021/10/04 03:38:05;;;;;;;1.03;0.77;;;;;20.80;100318.00;;;;2089092;28;20311;-54
2021/10/04 03:39:06;;;;;;;0.80;0.73;;;;;20.80;100323.00;;;;2086692;28;20232;-55
2021/10/04 03:40:06;;;;;;;1.03;0.90;;;;;20.80;100331.00;;;;2087088;28;20239;-54
2021/10/04 03:41:07;;;;;;;1.10;0.87;;;;;20.80;100330.00;;;;2090851;28;20216;-56
2021/10/04 03:42:07;;;;;;;0.80;0.80;;;;;20.80;100336.00;;;;2095389;28;20212;-54
2021/10/04 03:43:08;;;;;;;3.33;0.70;;;;;20.80;100337.00;;;;2095979;28;20220;-55
2021/10/04 03:44:08;;;;;;;0.90;0.70;;;;;20.80;100335.00;;;;2095982;28;20216;-57
2021/10/04 03:45:09;;;;;;;1.10;0.90;;;;;20.80;100324.00;;;;2095654;28;20216;-55
2021/10/04 03:46:09;;;;;;;0.83;0.70;;;;;20.80;100324.00;;;;2095098;28;20278;-55
2021/10/04 03:47:10;;;;;;;1.10;0.80;;;;;20.80;100322.00;;;;2095117;28;20462;-54
2021/10/04 03:48:10;;;;;;;1.10;0.97;;;;;20.80;100325.00;;;;2095457;28;20311;-56
2021/10/04 03:49:10;;;;;;;1.00;0.80;;;;;20.80;100324.00;;;;2095384;28;20231;-55
2021/10/04 03:50:11;;;;;;;0.90;0.80;;;;;20.80;100326.00;;;;2095267;28;20218;-55
2021/10/04 03:51:12;;;;;;;1.25;0.70;;;;;20.80;100334.00;;;;2095782;28;20701;-55
2021/10/04 03:52:12;;;;;;;2.30;1.00;;;;;20.80;100332.00;;;;2095839;28;20216;-54
2021/10/04 03:53:13;;;;;;;1.00;0.90;;;;;20.80;100334.00;;;;2095618;28;20295;-54
2021/10/04 03:54:13;;;;;;;1.00;0.80;;;;;20.80;100323.00;;;;2095683;28;20715;-55
2021/10/04 03:55:14;;;;;;;0.80;0.70;;;;;20.80;100331.00;;;;2095791;28;20212;-55
2021/10/04 03:56:14;;;;;;;0.90;0.70;;;;;20.80;100335.00;;;;2095763;28;20277;-54
2021/10/04 03:57:15;;;;;;;0.70;0.63;;;;;20.80;100332.00;;;;2095803;28;20220;-55
2021/10/04 03:58:16;;;;;;;0.98;0.70;;;;;20.80;100330.00;;;;2095858;28;20312;-54
2021/10/04 03:59:17;;;;;;;0.83;0.73;;;;;20.80;100334.00;;;;2095354;28;20673;-55
2021/10/04 04:00:19;;;;;;;0.93;0.70;;;;;20.80;100331.00;;;;2095066;28;20219;-55
2021/10/04 04:01:19;;;;;;;1.30;1.00;;;;;20.80;100333.00;;;;2094766;28;20216;-56
2021/10/04 04:02:20;;;;;;;1.13;0.70;;;;;20.80;100340.00;;;;2095976;28;20212;-56
2021/10/04 04:03:20;;;;;;;1.00;0.90;;;;;20.80;100335.00;;;;2095880;28;20212;-55
2021/10/04 04:04:20;;;;;;;0.80;0.77;;;;;20.80;100326.00;;;;2095507;28;20219;-55
2021/10/04 04:05:21;;;;;;;1.10;0.70;;;;;20.60;100330.00;;;;2094885;28;20227;-55
2021/10/04 04:06:21;;;;;;;0.90;0.80;;;;;20.80;100330.00;;;;2093770;28;20216;-55
2021/10/04 04:07:22;;;;;;;0.80;0.70;;;;;20.80;100334.00;;;;2088891;28;20585;-55
2021/10/04 04:08:22;;;;;;;1.20;0.70;;;;;20.80;100326.00;;;;2088585;28;20216;-55
2021/10/04 04:09:23;;;;;;;1.30;0.80;;;;;20.80;100330.00;;;;2086081;28;20221;-55
2021/10/04 04:10:23;;;;;;;1.10;0.80;;;;;20.80;100333.00;;;;2086812;28;20336;-56
2021/10/04 04:11:24;;;;;;;0.80;0.70;;;;;20.80;100326.00;;;;2087498;28;20315;-56
2021/10/04 04:12:24;;;;;;;1.00;0.90;;;;;20.80;100340.00;;;;2087345;28;20243;-55
2021/10/04 04:13:24;;;;;;;1.17;0.83;;;;;20.80;100346.00;;;;2087552;28;20217;-54
2021/10/04 04:14:25;;;;;;;1.27;0.90;;;;;20.80;100347.00;;;;2087196;28;20273;-55
2021/10/04 04:15:25;;;;;;;1.30;0.80;;;;;20.80;100343.00;;;;2087360;28;20216;-54
2021/10/04 04:16:26;;;;;;;1.10;0.70;;;;;20.80;100342.00;;;;2087472;28;20719;-55
2021/10/04 04:17:26;;;;;;;0.70;0.70;;;;;20.80;100343.00;;;;2087357;28;20213;-55
2021/10/04 04:18:26;;;;;;;1.10;0.77;;;;;20.80;100343.00;;;;2087464;28;20248;-56
2021/10/04 04:19:27;;;;;;;0.70;0.63;;;;;20.80;100347.00;;;;2084004;28;20224;-55
2021/10/04 04:20:27;;;;;;;0.80;0.70;;;;;20.80;100335.00;;;;2087189;28;20581;-55
2021/10/04 04:21:28;;;;;;;1.13;0.73;;;;;20.80;100348.00;;;;2087612;28;20220;-54
2021/10/04 04:22:28;;;;;;;0.80;0.70;;;;;20.80;100341.00;;;;2086519;28;20222;-54
2021/10/04 04:23:28;;;;;;;0.70;0.60;;;;;20.80;100348.00;;;;2086618;28;20323;-55
2021/10/04 04:24:29;;;;;;;0.80;0.60;;;;;20.80;100335.00;;;;2085759;28;20217;-56
2021/10/04 04:25:29;;;;;;;1.13;0.83;;;;;20.80;100338.00;;;;2086746;28;20217;-55
2021/10/04 04:26:29;;;;;;;0.90;0.80;;;;;20.80;100348.00;;;;2087075;28;20209;-55
2021/10/04 04:27:30;;;;;;;0.80;0.70;;;;;20.80;100347.00;;;;2085584;28;20299;-55
2021/10/04 04:28:30;;;;;;;1.20;0.60;;;;;20.80;100341.00;;;;2086169;28;20216;-55
2021/10/04 04:29:31;;;;;;;0.80;0.60;;;;;20.80;100344.00;;;;2086913;28;20213;-56
2021/10/04 04:30:31;;;;;;;1.10;0.60;;;;;20.80;100344.00;;;;2087470;28;20219;-55
2021/10/04 04:31:31;;;;;;;0.70;0.70;;;;;20.80;100344.00;;;;2087434;28;20215;-55
2021/10/04 04:32:32;;;;;;;0.80;0.60;;;;;20.80;100339.00;;;;2087410;28;20700;-55
2021/10/04 04:33:32;;;;;;;0.90;0.60;;;;;20.80;100339.00;;;;2087385;28;20228;-55
2021/10/04 04:34:33;;;;;;;0.93;0.70;;;;;20.80;100339.00;;;;2087219;28;20201;-56
2021/10/04 04:35:33;;;;;;;0.80;0.70;;;;;20.80;100347.00;;;;2087092;28;20209;-55
2021/10/04 04:36:33;;;;;;;0.80;0.80;;;;;20.80;100344.00;;;;2090467;28;20231;-54
2021/10/04 04:37:34;;;;;;;1.60;0.70;;;;;20.80;100346.00;;;;2092429;28;20200;-55
2021/10/04 04:38:35;;;;;;;0.70;0.57;;;;;20.80;100342.00;;;;2087565;28;20196;-55
2021/10/04 04:39:35;;;;;;;1.63;0.90;;;;;20.80;100346.00;;;;2086686;28;20677;-55
2021/10/04 04:40:35;;;;;;;0.80;0.60;;;;;20.80;100344.00;;;;2087289;28;20213;-55
2021/10/04 04:41:36;;;;;;;0.70;0.60;;;;;20.80;100339.00;;;;2087416;28;20205;-55
2021/10/04 04:42:36;;;;;;;1.10;0.80;;;;;20.80;100343.00;;;;2087274;28;20473;-55
2021/10/04 04:43:38;;;;;;;0.80;0.60;;;;;20.80;100342.00;;;;2087261;28;20227;-54
2021/10/04 04:44:38;;;;;;;0.77;0.70;;;;;20.80;100346.00;;;;2093048;28;20261;-55
2021/10/04 04:45:39;;;;;;;0.60;0.50;;;;;20.80;100346.00;;;;2095377;28;20224;-55
2021/10/04 04:46:39;;;;;;;0.90;0.70;;;;;20.80;100341.00;;;;2097039;27;20413;-54
2021/10/04 04:47:39;;;;;;;1.03;0.73;;;;;20.80;100346.00;;;;2098301;27;20211;-56
2021/10/04 04:48:40;;;;;;;1.20;0.60;;;;;20.80;100345.00;;;;2098287;27;20260;-56
2021/10/04 04:49:40;;;;;;;2.10;0.70;;;;;20.80;100344.00;;;;2097906;28;20250;-55
2021/10/04 04:50:41;;;;;;;0.80;0.60;;;;;20.80;100346.00;;;;2097537;27;20223;-55
2021/10/04 04:51:41;;;;;;;0.80;0.60;;;;;20.80;100348.00;;;;2098384;28;20727;-55
2021/10/04 04:52:41;;;;;;;2.40;1.13;;;;;20.80;100350.00;;;;2097318;28;20212;-56
2021/10/04 04:53:42;;;;;;;0.80;0.70;;;;;20.80;100342.00;;;;2097163;28;20306;-54
2021/10/04 04:54:42;;;;;;;1.00;0.70;;;;;20.80;100344.00;;;;2097510;27;20307;-55
2021/10/04 04:55:43;;;;;;;1.03;0.60;;;;;20.80;100346.00;;;;2097766;27;20219;-55
2021/10/04 04:56:43;;;;;;;0.93;0.70;;;;;20.80;100347.00;;;;2097979;27;20584;-56
2021/10/04 04:57:44;;;;;;;0.77;0.60;;;;;20.80;100345.00;;;;2097659;27;20208;-56
2021/10/04 04:58:44;;;;;;;0.73;0.50;;;;;20.80;100343.00;;;;2097044;28;24989;-56
2021/10/04 04:59:44;;;;;;;0.80;0.60;;;;;20.80;100338.00;;;;2089650;28;20220;-56